sensor_id;sensor_type;location;lat;lon;timestamp;P1;durP1;ratioP1;P2;durP2;ratioP2
24159;SDS011;62385;41.594;23.808;2022-10-04T00:00:37;1.27;;;0.95;;
24159;SDS011;62385;41.594;23.808;2022-10-04T00:05:34;3.03;;;1.60;;
24159;SDS011;62385;41.594;23.808;2022-10-04T00:08:02;1.57;;;1.20;;
24159;SDS011;62385;41.594;23.808;2022-10-04T00:10:38;1.65;;;1.00;;
24159;SDS011;62385;41.594;23.808;2022-10-04T00:13:05;1.23;;;1.00;;
24159;SDS011;62385;41.594;23.808;2022-10-04T00:15:32;1.50;;;0.95;;
24159;SDS011;62385;41.594;23.808;2022-10-04T00:26:05;1.07;;;0.40;;
24159;SDS011;62385;41.594;23.808;2022-10-04T00:28:42;1.43;;;0.70;;
24159;SDS011;62385;41.594;23.808;2022-10-04T00:39:13;1.03;;;0.80;;
24159;SDS011;62385;41.594;23.808;2022-10-04T00:44:30;3.63;;;1.80;;
24159;SDS011;62385;41.594;23.808;2022-10-04T00:50:12;1.10;;;0.80;;
24159;SDS011;62385;41.594;23.808;2022-10-04T00:52:43;3.03;;;2.13;;
24159;SDS011;62385;41.594;23.808;2022-10-04T00:55:30;0.57;;;0.57;;
24159;SDS011;62385;41.594;23.808;2022-10-04T00:58:02;0.53;;;0.53;;
24159;SDS011;62385;41.594;23.808;2022-10-04T01:00:31;0.37;;;0.30;;
24159;SDS011;62385;41.594;23.808;2022-10-04T01:03:03;0.77;;;0.70;;
24159;SDS011;62385;41.594;23.808;2022-10-04T01:05:33;0.30;;;0.20;;
24159;SDS011;62385;41.594;23.808;2022-10-04T01:08:03;0.87;;;0.80;;
24159;SDS011;62385;41.594;23.808;2022-10-04T01:10:44;0.60;;;0.30;;
24159;SDS011;62385;41.594;23.808;2022-10-04T01:13:29;0.73;;;0.60;;
24159;SDS011;62385;41.594;23.808;2022-10-04T01:18:40;1.07;;;0.60;;
24159;SDS011;62385;41.594;23.808;2022-10-04T01:28:54;0.33;;;0.20;;
24159;SDS011;62385;41.594;23.808;2022-10-04T01:31:20;0.60;;;0.60;;
24159;SDS011;62385;41.594;23.808;2022-10-04T01:33:47;0.40;;;0.30;;
24159;SDS011;62385;41.594;23.808;2022-10-04T01:36:13;0.90;;;0.70;;
24159;SDS011;62385;41.594;23.808;2022-10-04T01:38:40;1.07;;;0.53;;
24159;SDS011;62385;41.594;23.808;2022-10-04T01:41:06;1.10;;;0.77;;
24159;SDS011;62385;41.594;23.808;2022-10-04T01:43:35;4.10;;;1.13;;
24159;SDS011;62385;41.594;23.808;2022-10-04T01:46:24;0.73;;;0.33;;
24159;SDS011;62385;41.594;23.808;2022-10-04T01:48:52;0.70;;;0.50;;
24159;SDS011;62385;41.594;23.808;2022-10-04T01:51:25;0.60;;;0.60;;
24159;SDS011;62385;41.594;23.808;2022-10-04T01:56:27;1.70;;;0.50;;
24159;SDS011;62385;41.594;23.808;2022-10-04T01:59:17;0.57;;;0.27;;
24159;SDS011;62385;41.594;23.808;2022-10-04T02:01:49;1.40;;;0.37;;
24159;SDS011;62385;41.594;23.808;2022-10-04T02:04:22;0.60;;;0.60;;
24159;SDS011;62385;41.594;23.808;2022-10-04T02:06:52;0.83;;;0.63;;
24159;SDS011;62385;41.594;23.808;2022-10-04T02:09:22;0.30;;;0.30;;
24159;SDS011;62385;41.594;23.808;2022-10-04T02:12:12;0.43;;;0.23;;
24159;SDS011;62385;41.594;23.808;2022-10-04T02:14:44;0.30;;;0.27;;
24159;SDS011;62385;41.594;23.808;2022-10-04T02:17:17;0.50;;;0.47;;
24159;SDS011;62385;41.594;23.808;2022-10-04T02:19:48;5.43;;;0.63;;
24159;SDS011;62385;41.594;23.808;2022-10-04T02:22:14;0.77;;;0.30;;
24159;SDS011;62385;41.594;23.808;2022-10-04T02:24:58;1.43;;;0.70;;
24159;SDS011;62385;41.594;23.808;2022-10-04T02:27:25;0.50;;;0.37;;
24159;SDS011;62385;41.594;23.808;2022-10-04T02:29:58;0.23;;;0.20;;
24159;SDS011;62385;41.594;23.808;2022-10-04T02:32:43;0.70;;;0.70;;
24159;SDS011;62385;41.594;23.808;2022-10-04T02:35:23;5.07;;;2.20;;
24159;SDS011;62385;41.594;23.808;2022-10-04T02:38:00;2.20;;;1.27;;
24159;SDS011;62385;41.594;23.808;2022-10-04T02:40:55;6.23;;;1.83;;
24159;SDS011;62385;41.594;23.808;2022-10-04T02:43:32;1.33;;;0.87;;
24159;SDS011;62385;41.594;23.808;2022-10-04T02:52:11;3.37;;;0.90;;
24159;SDS011;62385;41.594;23.808;2022-10-04T02:54:29;2.60;;;1.20;;
24159;SDS011;62385;41.594;23.808;2022-10-04T02:57:00;1.27;;;1.17;;
24159;SDS011;62385;41.594;23.808;2022-10-04T02:59:26;3.27;;;1.57;;
24159;SDS011;62385;41.594;23.808;2022-10-04T03:01:55;0.50;;;0.47;;
24159;SDS011;62385;41.594;23.808;2022-10-04T03:04:23;1.37;;;0.53;;
24159;SDS011;62385;41.594;23.808;2022-10-04T03:06:51;2.90;;;0.53;;
24159;SDS011;62385;41.594;23.808;2022-10-04T03:09:18;0.38;;;0.35;;
24159;SDS011;62385;41.594;23.808;2022-10-04T03:11:45;0.40;;;0.30;;
24159;SDS011;62385;41.594;23.808;2022-10-04T03:14:12;1.57;;;0.90;;
24159;SDS011;62385;41.594;23.808;2022-10-04T03:16:42;0.53;;;0.43;;
24159;SDS011;62385;41.594;23.808;2022-10-04T03:19:08;0.30;;;0.30;;
24159;SDS011;62385;41.594;23.808;2022-10-04T03:21:35;0.73;;;0.30;;
24159;SDS011;62385;41.594;23.808;2022-10-04T03:24:01;0.70;;;0.67;;
24159;SDS011;62385;41.594;23.808;2022-10-04T03:26:51;0.70;;;0.70;;
24159;SDS011;62385;41.594;23.808;2022-10-04T03:29:20;1.37;;;0.50;;
24159;SDS011;62385;41.594;23.808;2022-10-04T03:31:48;0.40;;;0.40;;
24159;SDS011;62385;41.594;23.808;2022-10-04T03:34:17;0.80;;;0.67;;
24159;SDS011;62385;41.594;23.808;2022-10-04T03:36:45;0.83;;;0.53;;
24159;SDS011;62385;41.594;23.808;2022-10-04T03:39:16;0.60;;;0.53;;
24159;SDS011;62385;41.594;23.808;2022-10-04T03:41:58;1.50;;;1.40;;
24159;SDS011;62385;41.594;23.808;2022-10-04T03:44:28;1.10;;;0.90;;
24159;SDS011;62385;41.594;23.808;2022-10-04T03:46:55;1.50;;;0.93;;
24159;SDS011;62385;41.594;23.808;2022-10-04T03:49:27;3.23;;;0.80;;
24159;SDS011;62385;41.594;23.808;2022-10-04T03:51:55;1.00;;;0.90;;
24159;SDS011;62385;41.594;23.808;2022-10-04T03:54:22;2.07;;;1.40;;
24159;SDS011;62385;41.594;23.808;2022-10-04T03:56:53;0.87;;;0.83;;
24159;SDS011;62385;41.594;23.808;2022-10-04T03:59:19;0.50;;;0.30;;
24159;SDS011;62385;41.594;23.808;2022-10-04T04:01:49;0.47;;;0.47;;
24159;SDS011;62385;41.594;23.808;2022-10-04T04:09:22;0.57;;;0.50;;
24159;SDS011;62385;41.594;23.808;2022-10-04T04:11:50;1.97;;;0.87;;
24159;SDS011;62385;41.594;23.808;2022-10-04T04:14:24;1.23;;;0.90;;
24159;SDS011;62385;41.594;23.808;2022-10-04T04:16:51;0.57;;;0.50;;
24159;SDS011;62385;41.594;23.808;2022-10-04T04:19:18;0.90;;;0.57;;
24159;SDS011;62385;41.594;23.808;2022-10-04T04:21:48;0.50;;;0.27;;
24159;SDS011;62385;41.594;23.808;2022-10-04T04:24:25;1.30;;;0.43;;
24159;SDS011;62385;41.594;23.808;2022-10-04T04:27:11;0.73;;;0.50;;
24159;SDS011;62385;41.594;23.808;2022-10-04T04:29:43;3.60;;;3.03;;
24159;SDS011;62385;41.594;23.808;2022-10-04T04:32:16;2.93;;;2.70;;
24159;SDS011;62385;41.594;23.808;2022-10-04T04:34:52;1.50;;;1.20;;
24159;SDS011;62385;41.594;23.808;2022-10-04T04:37:21;1.97;;;1.03;;
24159;SDS011;62385;41.594;23.808;2022-10-04T04:39:48;3.07;;;1.53;;
24159;SDS011;62385;41.594;23.808;2022-10-04T04:42:24;1.60;;;0.93;;
24159;SDS011;62385;41.594;23.808;2022-10-04T04:44:57;2.07;;;1.53;;
24159;SDS011;62385;41.594;23.808;2022-10-04T04:47:26;1.60;;;0.83;;
24159;SDS011;62385;41.594;23.808;2022-10-04T04:50:19;0.30;;;0.20;;
24159;SDS011;62385;41.594;23.808;2022-10-04T04:52:50;1.03;;;1.03;;
24159;SDS011;62385;41.594;23.808;2022-10-04T04:57:50;3.50;;;2.00;;
24159;SDS011;62385;41.594;23.808;2022-10-04T05:00:17;3.13;;;1.57;;
24159;SDS011;62385;41.594;23.808;2022-10-04T05:02:49;0.77;;;0.33;;
24159;SDS011;62385;41.594;23.808;2022-10-04T05:07:49;1.87;;;1.13;;
24159;SDS011;62385;41.594;23.808;2022-10-04T05:10:50;3.70;;;1.57;;
24159;SDS011;62385;41.594;23.808;2022-10-04T05:13:25;1.70;;;1.43;;
24159;SDS011;62385;41.594;23.808;2022-10-04T05:16:17;2.03;;;0.60;;
24159;SDS011;62385;41.594;23.808;2022-10-04T05:18:46;0.90;;;0.70;;
24159;SDS011;62385;41.594;23.808;2022-10-04T05:21:26;1.17;;;1.03;;
24159;SDS011;62385;41.594;23.808;2022-10-04T05:23:54;2.00;;;1.07;;
24159;SDS011;62385;41.594;23.808;2022-10-04T05:26:25;9.60;;;3.63;;
24159;SDS011;62385;41.594;23.808;2022-10-04T05:28:53;9.47;;;6.30;;
24159;SDS011;62385;41.594;23.808;2022-10-04T05:34:27;10.90;;;4.60;;
24159;SDS011;62385;41.594;23.808;2022-10-04T05:42:35;3.47;;;2.83;;
24159;SDS011;62385;41.594;23.808;2022-10-04T05:45:10;6.07;;;3.83;;
24159;SDS011;62385;41.594;23.808;2022-10-04T05:47:49;6.63;;;4.50;;
24159;SDS011;62385;41.594;23.808;2022-10-04T05:53:10;5.67;;;3.30;;
24159;SDS011;62385;41.594;23.808;2022-10-04T06:03:47;4.47;;;3.38;;
24159;SDS011;62385;41.594;23.808;2022-10-04T06:06:18;7.80;;;3.85;;
24159;SDS011;62385;41.594;23.808;2022-10-04T06:11:49;4.85;;;1.67;;
24159;SDS011;62385;41.594;23.808;2022-10-04T06:19:46;2.20;;;1.15;;
24159;SDS011;62385;41.594;23.808;2022-10-04T06:22:18;1.88;;;1.17;;
24159;SDS011;62385;41.594;23.808;2022-10-04T06:30:22;1.25;;;0.93;;
24159;SDS011;62385;41.594;23.808;2022-10-04T06:35:49;1.73;;;1.10;;
24159;SDS011;62385;41.594;23.808;2022-10-04T06:41:47;0.68;;;0.63;;
24159;SDS011;62385;41.594;23.808;2022-10-04T06:58:17;0.82;;;0.75;;
24159;SDS011;62385;41.594;23.808;2022-10-04T07:01:19;1.40;;;0.80;;
24159;SDS011;62385;41.594;23.808;2022-10-04T07:06:19;2.05;;;1.05;;
24159;SDS011;62385;41.594;23.808;2022-10-04T07:08:59;2.33;;;0.93;;
24159;SDS011;62385;41.594;23.808;2022-10-04T07:11:49;0.95;;;0.85;;
24159;SDS011;62385;41.594;23.808;2022-10-04T07:14:21;0.50;;;0.50;;
24159;SDS011;62385;41.594;23.808;2022-10-04T07:16:55;1.35;;;0.77;;
24159;SDS011;62385;41.594;23.808;2022-10-04T07:19:37;0.80;;;0.70;;
24159;SDS011;62385;41.594;23.808;2022-10-04T07:29:57;3.83;;;1.13;;
24159;SDS011;62385;41.594;23.808;2022-10-04T07:32:27;0.60;;;0.40;;
24159;SDS011;62385;41.594;23.808;2022-10-04T07:35:03;1.17;;;0.73;;
24159;SDS011;62385;41.594;23.808;2022-10-04T07:37:52;0.52;;;0.30;;
24159;SDS011;62385;41.594;23.808;2022-10-04T07:40:30;4.68;;;0.50;;
24159;SDS011;62385;41.594;23.808;2022-10-04T07:43:04;0.50;;;0.30;;
24159;SDS011;62385;41.594;23.808;2022-10-04T07:45:34;1.58;;;0.82;;
24159;SDS011;62385;41.594;23.808;2022-10-04T07:48:09;2.78;;;1.05;;
24159;SDS011;62385;41.594;23.808;2022-10-04T07:53:38;0.80;;;0.50;;
24159;SDS011;62385;41.594;23.808;2022-10-04T08:09:07;1.23;;;0.77;;
24159;SDS011;62385;41.594;23.808;2022-10-04T08:35:20;0.80;;;0.32;;
24159;SDS011;62385;41.594;23.808;2022-10-04T09:03:07;1.30;;;0.50;;
24159;SDS011;62385;41.594;23.808;2022-10-04T09:12:19;0.40;;;0.30;;
24159;SDS011;62385;41.594;23.808;2022-10-04T10:06:46;0.57;;;0.50;;
24159;SDS011;62385;41.594;23.808;2022-10-04T10:09:37;0.50;;;0.50;;
24159;SDS011;62385;41.594;23.808;2022-10-04T10:32:18;0.77;;;0.52;;
24159;SDS011;62385;41.594;23.808;2022-10-04T10:43:30;0.32;;;0.25;;
24159;SDS011;62385;41.594;23.808;2022-10-04T10:57:20;0.20;;;0.17;;
24159;SDS011;62385;41.594;23.808;2022-10-04T11:00:19;0.20;;;0.10;;
24159;SDS011;62385;41.594;23.808;2022-10-04T11:02:57;0.20;;;0.20;;
24159;SDS011;62385;41.594;23.808;2022-10-04T11:19:54;0.45;;;0.40;;
24159;SDS011;62385;41.594;23.808;2022-10-04T11:30:22;0.30;;;0.20;;
24159;SDS011;62385;41.594;23.808;2022-10-04T11:42:02;0.25;;;0.13;;
24159;SDS011;62385;41.594;23.808;2022-10-04T11:47:27;0.50;;;0.30;;
24159;SDS011;62385;41.594;23.808;2022-10-04T12:06:46;0.40;;;0.30;;
24159;SDS011;62385;41.594;23.808;2022-10-04T12:28:49;0.20;;;0.20;;
24159;SDS011;62385;41.594;23.808;2022-10-04T12:33:50;0.45;;;0.38;;
24159;SDS011;62385;41.594;23.808;2022-10-04T12:38:58;0.70;;;0.38;;
24159;SDS011;62385;41.594;23.808;2022-10-04T12:41:40;0.50;;;0.32;;
24159;SDS011;62385;41.594;23.808;2022-10-04T12:53:05;0.43;;;0.43;;
24159;SDS011;62385;41.594;23.808;2022-10-04T13:01:25;0.65;;;0.35;;
24159;SDS011;62385;41.594;23.808;2022-10-04T13:03:59;0.20;;;0.10;;
24159;SDS011;62385;41.594;23.808;2022-10-04T13:06:29;0.47;;;0.30;;
24159;SDS011;62385;41.594;23.808;2022-10-04T13:16:50;0.45;;;0.30;;
24159;SDS011;62385;41.594;23.808;2022-10-04T13:19:23;0.20;;;0.20;;
24159;SDS011;62385;41.594;23.808;2022-10-04T13:22:09;0.68;;;0.30;;
24159;SDS011;62385;41.594;23.808;2022-10-04T13:30:15;0.20;;;0.10;;
24159;SDS011;62385;41.594;23.808;2022-10-04T13:35:26;0.50;;;0.30;;
24159;SDS011;62385;41.594;23.808;2022-10-04T13:41:22;0.52;;;0.30;;
24159;SDS011;62385;41.594;23.808;2022-10-04T13:46:35;0.32;;;0.20;;
24159;SDS011;62385;41.594;23.808;2022-10-04T14:03:40;0.65;;;0.45;;
24159;SDS011;62385;41.594;23.808;2022-10-04T14:09:39;0.30;;;0.10;;
24159;SDS011;62385;41.594;23.808;2022-10-04T14:40:00;0.30;;;0.25;;
24159;SDS011;62385;41.594;23.808;2022-10-04T14:45:53;0.52;;;0.30;;
24159;SDS011;62385;41.594;23.808;2022-10-04T14:59:51;0.35;;;0.28;;
24159;SDS011;62385;41.594;23.808;2022-10-04T15:07:03;0.25;;;0.13;;
24159;SDS011;62385;41.594;23.808;2022-10-04T15:09:45;0.30;;;0.30;;
24159;SDS011;62385;41.594;23.808;2022-10-04T15:15:26;0.40;;;0.32;;
24159;SDS011;62385;41.594;23.808;2022-10-04T15:18:02;0.57;;;0.40;;
24159;SDS011;62385;41.594;23.808;2022-10-04T15:26:01;1.02;;;0.50;;
24159;SDS011;62385;41.594;23.808;2022-10-04T15:28:40;2.63;;;1.10;;
24159;SDS011;62385;41.594;23.808;2022-10-04T15:50:32;1.45;;;0.82;;
24159;SDS011;62385;41.594;23.808;2022-10-04T16:06:46;1.30;;;0.70;;
24159;SDS011;62385;41.594;23.808;2022-10-04T16:22:32;0.80;;;0.70;;
24159;SDS011;62385;41.594;23.808;2022-10-04T16:30:34;1.10;;;0.68;;
24159;SDS011;62385;41.594;23.808;2022-10-04T16:33:09;3.42;;;0.77;;
24159;SDS011;62385;41.594;23.808;2022-10-04T16:36:07;0.55;;;0.55;;
24159;SDS011;62385;41.594;23.808;2022-10-04T16:38:56;0.60;;;0.40;;
24159;SDS011;62385;41.594;23.808;2022-10-04T16:41:55;0.55;;;0.32;;
24159;SDS011;62385;41.594;23.808;2022-10-04T16:44:34;0.40;;;0.40;;
24159;SDS011;62385;41.594;23.808;2022-10-04T16:47:16;0.52;;;0.52;;
24159;SDS011;62385;41.594;23.808;2022-10-04T16:49:50;0.80;;;0.47;;
24159;SDS011;62385;41.594;23.808;2022-10-04T16:55:57;0.30;;;0.30;;
24159;SDS011;62385;41.594;23.808;2022-10-04T17:26:06;0.98;;;0.88;;
24159;SDS011;62385;41.594;23.808;2022-10-04T17:28:57;3.22;;;1.38;;
24159;SDS011;62385;41.594;23.808;2022-10-04T17:31:56;2.60;;;1.27;;
24159;SDS011;62385;41.594;23.808;2022-10-04T17:47:33;6.97;;;2.63;;
24159;SDS011;62385;41.594;23.808;2022-10-04T17:50:21;5.72;;;3.90;;
24159;SDS011;62385;41.594;23.808;2022-10-04T17:53:26;8.48;;;3.45;;
24159;SDS011;62385;41.594;23.808;2022-10-04T17:56:11;6.82;;;3.05;;
24159;SDS011;62385;41.594;23.808;2022-10-04T17:58:49;3.15;;;1.23;;
24159;SDS011;62385;41.594;23.808;2022-10-04T18:01:17;0.60;;;0.40;;
24159;SDS011;62385;41.594;23.808;2022-10-04T18:04:06;2.28;;;1.35;;
24159;SDS011;62385;41.594;23.808;2022-10-04T18:06:37;1.88;;;1.40;;
24159;SDS011;62385;41.594;23.808;2022-10-04T18:12:10;1.55;;;0.98;;
24159;SDS011;62385;41.594;23.808;2022-10-04T18:14:48;1.52;;;0.90;;
24159;SDS011;62385;41.594;23.808;2022-10-04T18:17:28;1.20;;;0.77;;
24159;SDS011;62385;41.594;23.808;2022-10-04T18:20:16;0.68;;;0.68;;
24159;SDS011;62385;41.594;23.808;2022-10-04T18:22:55;2.03;;;0.65;;
24159;SDS011;62385;41.594;23.808;2022-10-04T18:25:22;1.05;;;0.65;;
24159;SDS011;62385;41.594;23.808;2022-10-04T18:30:53;0.77;;;0.60;;
24159;SDS011;62385;41.594;23.808;2022-10-04T18:36:17;0.60;;;0.50;;
24159;SDS011;62385;41.594;23.808;2022-10-04T18:39:02;1.00;;;0.43;;
24159;SDS011;62385;41.594;23.808;2022-10-04T18:41:44;0.60;;;0.40;;
24159;SDS011;62385;41.594;23.808;2022-10-04T18:44:20;1.17;;;0.88;;
24159;SDS011;62385;41.594;23.808;2022-10-04T18:46:48;1.75;;;0.80;;
24159;SDS011;62385;41.594;23.808;2022-10-04T18:49:23;0.70;;;0.70;;
24159;SDS011;62385;41.594;23.808;2022-10-04T18:57:46;0.52;;;0.52;;
24159;SDS011;62385;41.594;23.808;2022-10-04T19:00:46;0.95;;;0.77;;
24159;SDS011;62385;41.594;23.808;2022-10-04T19:03:49;0.43;;;0.43;;
24159;SDS011;62385;41.594;23.808;2022-10-04T19:06:29;0.80;;;0.73;;
24159;SDS011;62385;41.594;23.808;2022-10-04T19:14:13;1.15;;;0.60;;
24159;SDS011;62385;41.594;23.808;2022-10-04T19:30:59;2.10;;;0.80;;
24159;SDS011;62385;41.594;23.808;2022-10-04T19:42:07;0.85;;;0.40;;
24159;SDS011;62385;41.594;23.808;2022-10-04T19:44:48;0.47;;;0.40;;
24159;SDS011;62385;41.594;23.808;2022-10-04T19:55:38;0.50;;;0.40;;
24159;SDS011;62385;41.594;23.808;2022-10-04T19:58:16;0.20;;;0.20;;
24159;SDS011;62385;41.594;23.808;2022-10-04T20:00:49;0.47;;;0.30;;
24159;SDS011;62385;41.594;23.808;2022-10-04T20:03:14;0.73;;;0.50;;
24159;SDS011;62385;41.594;23.808;2022-10-04T20:05:47;0.70;;;0.40;;
24159;SDS011;62385;41.594;23.808;2022-10-04T20:08:16;0.65;;;0.40;;
24159;SDS011;62385;41.594;23.808;2022-10-04T20:13:43;0.50;;;0.47;;
24159;SDS011;62385;41.594;23.808;2022-10-04T20:16:08;1.08;;;0.65;;
24159;SDS011;62385;41.594;23.808;2022-10-04T20:21:04;1.33;;;1.23;;
24159;SDS011;62385;41.594;23.808;2022-10-04T20:26:02;0.52;;;0.50;;
24159;SDS011;62385;41.594;23.808;2022-10-04T20:31:08;0.30;;;0.20;;
24159;SDS011;62385;41.594;23.808;2022-10-04T20:45:43;2.13;;;0.90;;
24159;SDS011;62385;41.594;23.808;2022-10-04T20:48:17;0.32;;;0.22;;
24159;SDS011;62385;41.594;23.808;2022-10-04T20:50:45;2.05;;;0.65;;
24159;SDS011;62385;41.594;23.808;2022-10-04T20:53:24;1.13;;;0.70;;
24159;SDS011;62385;41.594;23.808;2022-10-04T20:58:51;0.35;;;0.35;;
24159;SDS011;62385;41.594;23.808;2022-10-04T21:04:21;0.38;;;0.30;;
24159;SDS011;62385;41.594;23.808;2022-10-04T21:07:17;0.63;;;0.60;;
24159;SDS011;62385;41.594;23.808;2022-10-04T21:09:50;0.80;;;0.73;;
24159;SDS011;62385;41.594;23.808;2022-10-04T21:12:26;0.40;;;0.32;;
24159;SDS011;62385;41.594;23.808;2022-10-04T21:15:00;1.17;;;0.73;;
24159;SDS011;62385;41.594;23.808;2022-10-04T21:17:42;0.63;;;0.40;;
24159;SDS011;62385;41.594;23.808;2022-10-04T21:20:53;0.60;;;0.40;;
24159;SDS011;62385;41.594;23.808;2022-10-04T21:23:27;0.40;;;0.40;;
24159;SDS011;62385;41.594;23.808;2022-10-04T21:29:11;0.85;;;0.40;;
24159;SDS011;62385;41.594;23.808;2022-10-04T21:31:38;0.75;;;0.65;;
24159;SDS011;62385;41.594;23.808;2022-10-04T21:34:03;1.00;;;0.77;;
24159;SDS011;62385;41.594;23.808;2022-10-04T21:36:29;0.60;;;0.60;;
24159;SDS011;62385;41.594;23.808;2022-10-04T21:38:54;0.65;;;0.45;;
24159;SDS011;62385;41.594;23.808;2022-10-04T21:41:20;0.50;;;0.50;;
24159;SDS011;62385;41.594;23.808;2022-10-04T21:43:45;2.72;;;0.88;;
24159;SDS011;62385;41.594;23.808;2022-10-04T21:46:11;0.73;;;0.50;;
24159;SDS011;62385;41.594;23.808;2022-10-04T21:48:37;1.15;;;0.57;;
24159;SDS011;62385;41.594;23.808;2022-10-04T21:51:03;0.43;;;0.40;;
24159;SDS011;62385;41.594;23.808;2022-10-04T21:53:28;1.20;;;0.93;;
24159;SDS011;62385;41.594;23.808;2022-10-04T21:55:54;0.47;;;0.43;;
24159;SDS011;62385;41.594;23.808;2022-10-04T21:58:19;0.30;;;0.28;;
24159;SDS011;62385;41.594;23.808;2022-10-04T22:00:45;0.52;;;0.50;;
24159;SDS011;62385;41.594;23.808;2022-10-04T22:03:10;1.42;;;0.60;;
24159;SDS011;62385;41.594;23.808;2022-10-04T22:05:36;0.70;;;0.40;;
24159;SDS011;62385;41.594;23.808;2022-10-04T22:08:01;1.75;;;0.50;;
24159;SDS011;62385;41.594;23.808;2022-10-04T22:10:27;2.08;;;0.70;;
24159;SDS011;62385;41.594;23.808;2022-10-04T22:12:53;1.27;;;0.70;;
24159;SDS011;62385;41.594;23.808;2022-10-04T22:15:21;1.25;;;0.70;;
24159;SDS011;62385;41.594;23.808;2022-10-04T22:17:48;1.27;;;0.93;;
24159;SDS011;62385;41.594;23.808;2022-10-04T22:20:13;1.42;;;0.50;;
24159;SDS011;62385;41.594;23.808;2022-10-04T22:22:39;0.70;;;0.32;;
24159;SDS011;62385;41.594;23.808;2022-10-04T22:25:26;1.95;;;0.88;;
24159;SDS011;62385;41.594;23.808;2022-10-04T22:27:52;0.60;;;0.50;;
24159;SDS011;62385;41.594;23.808;2022-10-04T22:30:22;1.02;;;0.73;;
24159;SDS011;62385;41.594;23.808;2022-10-04T22:32:48;0.32;;;0.17;;
24159;SDS011;62385;41.594;23.808;2022-10-04T22:35:15;0.40;;;0.30;;
24159;SDS011;62385;41.594;23.808;2022-10-04T22:37:43;1.30;;;0.60;;
24159;SDS011;62385;41.594;23.808;2022-10-04T22:40:14;0.65;;;0.55;;
24159;SDS011;62385;41.594;23.808;2022-10-04T22:42:44;0.82;;;0.80;;
24159;SDS011;62385;41.594;23.808;2022-10-04T22:45:18;0.95;;;0.85;;
24159;SDS011;62385;41.594;23.808;2022-10-04T22:47:47;0.75;;;0.73;;
24159;SDS011;62385;41.594;23.808;2022-10-04T22:50:22;0.45;;;0.45;;
24159;SDS011;62385;41.594;23.808;2022-10-04T22:52:52;0.90;;;0.73;;
24159;SDS011;62385;41.594;23.808;2022-10-04T22:55:18;1.02;;;0.40;;
24159;SDS011;62385;41.594;23.808;2022-10-04T22:57:44;1.00;;;0.88;;
24159;SDS011;62385;41.594;23.808;2022-10-04T23:00:09;0.75;;;0.57;;
24159;SDS011;62385;41.594;23.808;2022-10-04T23:02:38;0.85;;;0.75;;
24159;SDS011;62385;41.594;23.808;2022-10-04T23:05:14;0.77;;;0.55;;
24159;SDS011;62385;41.594;23.808;2022-10-04T23:07:44;0.60;;;0.57;;
24159;SDS011;62385;41.594;23.808;2022-10-04T23:10:11;0.57;;;0.57;;
24159;SDS011;62385;41.594;23.808;2022-10-04T23:12:38;0.73;;;0.50;;
24159;SDS011;62385;41.594;23.808;2022-10-04T23:15:05;0.82;;;0.70;;
24159;SDS011;62385;41.594;23.808;2022-10-04T23:17:35;0.40;;;0.38;;
24159;SDS011;62385;41.594;23.808;2022-10-04T23:20:15;1.27;;;0.43;;
24159;SDS011;62385;41.594;23.808;2022-10-04T23:22:49;1.00;;;0.82;;
24159;SDS011;62385;41.594;23.808;2022-10-04T23:25:17;1.50;;;0.50;;
24159;SDS011;62385;41.594;23.808;2022-10-04T23:27:48;0.32;;;0.32;;
24159;SDS011;62385;41.594;23.808;2022-10-04T23:30:18;2.13;;;0.63;;
24159;SDS011;62385;41.594;23.808;2022-10-04T23:32:47;0.85;;;0.55;;
24159;SDS011;62385;41.594;23.808;2022-10-04T23:35:15;2.60;;;0.90;;
24159;SDS011;62385;41.594;23.808;2022-10-04T23:37:45;1.17;;;0.90;;
24159;SDS011;62385;41.594;23.808;2022-10-04T23:40:12;2.10;;;0.60;;
24159;SDS011;62385;41.594;23.808;2022-10-04T23:42:40;1.13;;;0.70;;
24159;SDS011;62385;41.594;23.808;2022-10-04T23:45:14;1.83;;;0.73;;
24159;SDS011;62385;41.594;23.808;2022-10-04T23:47:41;2.83;;;1.23;;
24159;SDS011;62385;41.594;23.808;2022-10-04T23:52:56;0.88;;;0.65;;
24159;SDS011;62385;41.594;23.808;2022-10-04T23:55:28;0.47;;;0.38;;
24159;SDS011;62385;41.594;23.808;2022-10-04T23:57:55;0.40;;;0.40;;
